KKLS

Southwest Washington Regional Airport

Kelso, Washington, USA
METAR KKLS 160056Z AUTO 00000KT 10SM OVC100 07/03 A2990 RMK AO2 SLP128 T00720033
Observed Flight Rules
Dec-16 @ 00:56 UTC (20 minutes ago) Visual Flight Rules
Visibility Clouds
10 miles
  • Overcast at 10,000' AGL
Temperatures Readings
Current 7°C / 45°F
Dewpoint 3°C / 37°F
Humidity 76%
Altimeter 29.9" Hg
Pressure 1012.8 hPa
Elevation 5
METAR KKLS 160056Z AUTO 00000KT 10SM OVC100 07/03 A2990 RMK AO2 SLP128 T00720033
Observed Flight Rules
Dec-16 @ 00:56 UTC
(20 minutes ago)
VFR
Clouds
  • Overcast at 10,000' AGL
Temperature Dewpoint
7°C / 45°F 3°C / 37°F
Humidity Altimeter Pressure
76% 29.9" Hg 1012.8 hPa